sensor_id;sensor_type;location;lat;lon;timestamp;temperature;humidity
33368;DHT22;19724;51.114;13.906;2023-04-03T00:01:30;3.20;99.90
33368;DHT22;19724;51.114;13.906;2023-04-03T00:03:56;3.20;99.90
33368;DHT22;19724;51.114;13.906;2023-04-03T00:06:22;3.10;99.90
33368;DHT22;19724;51.114;13.906;2023-04-03T00:08:48;3.10;99.90
33368;DHT22;19724;51.114;13.906;2023-04-03T00:11:14;3.10;99.90
33368;DHT22;19724;51.114;13.906;2023-04-03T00:13:40;3.00;99.90
33368;DHT22;19724;51.114;13.906;2023-04-03T00:16:07;3.00;99.90
33368;DHT22;19724;51.114;13.906;2023-04-03T00:18:33;3.00;99.90
33368;DHT22;19724;51.114;13.906;2023-04-03T00:20:58;2.90;99.90
33368;DHT22;19724;51.114;13.906;2023-04-03T00:23:24;2.90;99.90
33368;DHT22;19724;51.114;13.906;2023-04-03T00:25:50;2.90;99.90
33368;DHT22;19724;51.114;13.906;2023-04-03T00:28:16;2.90;99.90
33368;DHT22;19724;51.114;13.906;2023-04-03T00:30:41;2.90;99.90
33368;DHT22;19724;51.114;13.906;2023-04-03T00:33:07;2.80;99.90
33368;DHT22;19724;51.114;13.906;2023-04-03T00:35:34;2.80;99.90
33368;DHT22;19724;51.114;13.906;2023-04-03T00:38:00;2.80;99.90
33368;DHT22;19724;51.114;13.906;2023-04-03T00:40:27;2.80;99.90
33368;DHT22;19724;51.114;13.906;2023-04-03T00:42:58;2.80;99.90
33368;DHT22;19724;51.114;13.906;2023-04-03T00:48:00;2.80;99.90
33368;DHT22;19724;51.114;13.906;2023-04-03T00:50:27;2.80;99.90
33368;DHT22;19724;51.114;13.906;2023-04-03T00:52:53;2.80;99.90
33368;DHT22;19724;51.114;13.906;2023-04-03T00:55:19;2.80;99.90
33368;DHT22;19724;51.114;13.906;2023-04-03T00:57:45;2.80;99.90
33368;DHT22;19724;51.114;13.906;2023-04-03T01:00:15;2.70;99.90
33368;DHT22;19724;51.114;13.906;2023-04-03T01:02:42;2.70;99.90
33368;DHT22;19724;51.114;13.906;2023-04-03T01:05:08;2.70;99.90
33368;DHT22;19724;51.114;13.906;2023-04-03T01:07:34;2.70;99.90
33368;DHT22;19724;51.114;13.906;2023-04-03T01:10:06;2.70;99.90
33368;DHT22;19724;51.114;13.906;2023-04-03T01:12:37;2.70;99.90
33368;DHT22;19724;51.114;13.906;2023-04-03T01:15:07;2.60;99.90
33368;DHT22;19724;51.114;13.906;2023-04-03T01:25:50;2.50;99.90
33368;DHT22;19724;51.114;13.906;2023-04-03T01:28:22;2.40;99.90
33368;DHT22;19724;51.114;13.906;2023-04-03T01:31:00;2.40;99.90
33368;DHT22;19724;51.114;13.906;2023-04-03T01:33:28;2.40;99.90
33368;DHT22;19724;51.114;13.906;2023-04-03T01:35:53;2.40;99.90
33368;DHT22;19724;51.114;13.906;2023-04-03T01:38:19;2.30;99.90
33368;DHT22;19724;51.114;13.906;2023-04-03T01:40:44;2.30;99.90
33368;DHT22;19724;51.114;13.906;2023-04-03T01:43:10;2.30;99.90
33368;DHT22;19724;51.114;13.906;2023-04-03T01:45:35;2.20;99.90
33368;DHT22;19724;51.114;13.906;2023-04-03T01:48:01;2.20;99.90
33368;DHT22;19724;51.114;13.906;2023-04-03T01:50:26;2.10;99.90
33368;DHT22;19724;51.114;13.906;2023-04-03T01:52:52;2.10;99.90
33368;DHT22;19724;51.114;13.906;2023-04-03T01:55:17;2.10;99.90
33368;DHT22;19724;51.114;13.906;2023-04-03T01:57:43;2.00;99.90
33368;DHT22;19724;51.114;13.906;2023-04-03T02:00:09;2.00;99.90
33368;DHT22;19724;51.114;13.906;2023-04-03T02:02:34;1.90;99.90
33368;DHT22;19724;51.114;13.906;2023-04-03T02:05:00;1.90;99.90
33368;DHT22;19724;51.114;13.906;2023-04-03T02:07:26;1.90;99.90
33368;DHT22;19724;51.114;13.906;2023-04-03T02:09:51;1.80;99.90
33368;DHT22;19724;51.114;13.906;2023-04-03T02:12:17;1.80;99.90
33368;DHT22;19724;51.114;13.906;2023-04-03T02:14:42;1.70;99.90
33368;DHT22;19724;51.114;13.906;2023-04-03T02:17:08;1.70;99.90
33368;DHT22;19724;51.114;13.906;2023-04-03T02:19:34;1.70;99.90
33368;DHT22;19724;51.114;13.906;2023-04-03T02:22:02;1.70;99.90
33368;DHT22;19724;51.114;13.906;2023-04-03T02:24:27;1.60;99.90
33368;DHT22;19724;51.114;13.906;2023-04-03T02:26:53;1.70;99.90
33368;DHT22;19724;51.114;13.906;2023-04-03T02:29:19;1.60;99.90
33368;DHT22;19724;51.114;13.906;2023-04-03T02:31:44;1.60;99.90
33368;DHT22;19724;51.114;13.906;2023-04-03T02:34:10;1.50;99.90
33368;DHT22;19724;51.114;13.906;2023-04-03T02:36:36;1.50;99.90
33368;DHT22;19724;51.114;13.906;2023-04-03T02:39:01;1.40;99.90
33368;DHT22;19724;51.114;13.906;2023-04-03T02:41:27;1.40;99.90
33368;DHT22;19724;51.114;13.906;2023-04-03T02:43:58;1.30;99.90
33368;DHT22;19724;51.114;13.906;2023-04-03T02:46:24;1.30;99.90
33368;DHT22;19724;51.114;13.906;2023-04-03T02:48:50;1.20;99.90
33368;DHT22;19724;51.114;13.906;2023-04-03T02:51:15;1.20;99.90
33368;DHT22;19724;51.114;13.906;2023-04-03T02:53:41;1.10;99.90
33368;DHT22;19724;51.114;13.906;2023-04-03T02:56:06;1.10;99.90
33368;DHT22;19724;51.114;13.906;2023-04-03T02:58:32;1.10;99.90
33368;DHT22;19724;51.114;13.906;2023-04-03T03:00:57;1.00;99.90
33368;DHT22;19724;51.114;13.906;2023-04-03T03:03:23;1.00;99.90
33368;DHT22;19724;51.114;13.906;2023-04-03T03:05:48;1.00;99.90
33368;DHT22;19724;51.114;13.906;2023-04-03T03:08:14;1.00;99.90
33368;DHT22;19724;51.114;13.906;2023-04-03T03:10:39;0.90;99.90
33368;DHT22;19724;51.114;13.906;2023-04-03T03:13:05;0.90;99.90
33368;DHT22;19724;51.114;13.906;2023-04-03T03:15:30;0.80;99.90
33368;DHT22;19724;51.114;13.906;2023-04-03T03:17:56;0.70;99.90
33368;DHT22;19724;51.114;13.906;2023-04-03T03:20:21;0.70;99.90
33368;DHT22;19724;51.114;13.906;2023-04-03T03:22:47;0.70;99.90
33368;DHT22;19724;51.114;13.906;2023-04-03T03:25:12;0.70;99.90
33368;DHT22;19724;51.114;13.906;2023-04-03T03:27:38;0.70;99.90
33368;DHT22;19724;51.114;13.906;2023-04-03T03:30:04;0.60;99.90
33368;DHT22;19724;51.114;13.906;2023-04-03T03:32:30;0.60;99.90
33368;DHT22;19724;51.114;13.906;2023-04-03T03:34:55;0.60;99.90
33368;DHT22;19724;51.114;13.906;2023-04-03T03:37:21;0.50;99.90
33368;DHT22;19724;51.114;13.906;2023-04-03T03:39:46;0.50;99.90
33368;DHT22;19724;51.114;13.906;2023-04-03T03:42:12;0.50;99.90
33368;DHT22;19724;51.114;13.906;2023-04-03T03:44:37;0.50;99.90
33368;DHT22;19724;51.114;13.906;2023-04-03T03:47:03;0.40;99.90
33368;DHT22;19724;51.114;13.906;2023-04-03T03:49:28;0.40;99.90
33368;DHT22;19724;51.114;13.906;2023-04-03T03:51:54;0.40;99.90
33368;DHT22;19724;51.114;13.906;2023-04-03T03:54:19;0.30;99.90
33368;DHT22;19724;51.114;13.906;2023-04-03T03:56:45;0.30;99.90
33368;DHT22;19724;51.114;13.906;2023-04-03T03:59:13;0.30;99.90
33368;DHT22;19724;51.114;13.906;2023-04-03T04:01:39;0.20;99.90
33368;DHT22;19724;51.114;13.906;2023-04-03T04:04:05;0.20;99.90
33368;DHT22;19724;51.114;13.906;2023-04-03T04:06:30;0.20;99.90
33368;DHT22;19724;51.114;13.906;2023-04-03T04:08:56;0.10;99.90
33368;DHT22;19724;51.114;13.906;2023-04-03T04:11:21;0.10;99.90
33368;DHT22;19724;51.114;13.906;2023-04-03T04:13:47;0.10;99.90
33368;DHT22;19724;51.114;13.906;2023-04-03T04:16:13;0.00;99.90
33368;DHT22;19724;51.114;13.906;2023-04-03T04:18:38;0.00;99.90
33368;DHT22;19724;51.114;13.906;2023-04-03T04:21:03;0.00;99.90
33368;DHT22;19724;51.114;13.906;2023-04-03T04:23:29;-0.10;99.90
33368;DHT22;19724;51.114;13.906;2023-04-03T04:25:55;-0.20;99.90
33368;DHT22;19724;51.114;13.906;2023-04-03T04:28:20;-0.20;99.90
33368;DHT22;19724;51.114;13.906;2023-04-03T04:30:45;-0.20;99.90
33368;DHT22;19724;51.114;13.906;2023-04-03T04:33:11;-0.20;99.90
33368;DHT22;19724;51.114;13.906;2023-04-03T04:35:37;-0.30;99.90
33368;DHT22;19724;51.114;13.906;2023-04-03T04:38:02;-0.30;99.90
33368;DHT22;19724;51.114;13.906;2023-04-03T04:40:28;-0.30;99.90
33368;DHT22;19724;51.114;13.906;2023-04-03T04:42:55;-0.30;99.90
33368;DHT22;19724;51.114;13.906;2023-04-03T04:45:20;-0.30;99.90
33368;DHT22;19724;51.114;13.906;2023-04-03T04:47:46;-0.30;99.90
33368;DHT22;19724;51.114;13.906;2023-04-03T04:50:11;-0.30;99.90
33368;DHT22;19724;51.114;13.906;2023-04-03T04:52:39;-0.30;99.90
33368;DHT22;19724;51.114;13.906;2023-04-03T04:55:08;-0.30;99.90
33368;DHT22;19724;51.114;13.906;2023-04-03T04:57:33;-0.20;99.90
33368;DHT22;19724;51.114;13.906;2023-04-03T05:00:00;-0.20;99.90
33368;DHT22;19724;51.114;13.906;2023-04-03T05:02:25;-0.10;99.90
33368;DHT22;19724;51.114;13.906;2023-04-03T05:04:51;-0.10;99.90
33368;DHT22;19724;51.114;13.906;2023-04-03T05:07:17;-0.10;99.90
33368;DHT22;19724;51.114;13.906;2023-04-03T05:09:42;0.00;99.90
33368;DHT22;19724;51.114;13.906;2023-04-03T05:12:08;0.00;99.90
33368;DHT22;19724;51.114;13.906;2023-04-03T05:14:33;0.00;99.90
33368;DHT22;19724;51.114;13.906;2023-04-03T05:16:59;0.00;99.90
33368;DHT22;19724;51.114;13.906;2023-04-03T05:19:24;0.10;99.90
33368;DHT22;19724;51.114;13.906;2023-04-03T05:21:50;0.10;99.90
33368;DHT22;19724;51.114;13.906;2023-04-03T05:24:16;0.10;99.90
33368;DHT22;19724;51.114;13.906;2023-04-03T05:26:42;0.20;99.90
33368;DHT22;19724;51.114;13.906;2023-04-03T05:29:08;0.20;99.90
33368;DHT22;19724;51.114;13.906;2023-04-03T05:31:34;0.30;99.90
33368;DHT22;19724;51.114;13.906;2023-04-03T05:34:00;0.30;99.90
33368;DHT22;19724;51.114;13.906;2023-04-03T05:36:25;0.30;99.90
33368;DHT22;19724;51.114;13.906;2023-04-03T05:38:52;0.30;99.90
33368;DHT22;19724;51.114;13.906;2023-04-03T05:41:17;0.30;99.90
33368;DHT22;19724;51.114;13.906;2023-04-03T05:43:43;0.50;99.90
33368;DHT22;19724;51.114;13.906;2023-04-03T05:46:15;0.40;99.90
33368;DHT22;19724;51.114;13.906;2023-04-03T05:48:41;0.50;99.90
33368;DHT22;19724;51.114;13.906;2023-04-03T05:51:08;0.50;99.90
33368;DHT22;19724;51.114;13.906;2023-04-03T05:53:38;0.60;99.90
33368;DHT22;19724;51.114;13.906;2023-04-03T05:56:04;0.60;99.90
33368;DHT22;19724;51.114;13.906;2023-04-03T05:58:29;0.70;99.90
33368;DHT22;19724;51.114;13.906;2023-04-03T06:00:55;0.70;99.90
33368;DHT22;19724;51.114;13.906;2023-04-03T06:03:20;0.80;99.90
33368;DHT22;19724;51.114;13.906;2023-04-03T06:05:46;0.90;99.90
33368;DHT22;19724;51.114;13.906;2023-04-03T06:08:12;0.80;99.90
33368;DHT22;19724;51.114;13.906;2023-04-03T06:10:38;0.90;99.90
33368;DHT22;19724;51.114;13.906;2023-04-03T06:13:04;0.90;99.90
33368;DHT22;19724;51.114;13.906;2023-04-03T06:15:29;1.00;99.90
33368;DHT22;19724;51.114;13.906;2023-04-03T06:17:55;0.90;99.90
33368;DHT22;19724;51.114;13.906;2023-04-03T06:20:20;1.00;99.90
33368;DHT22;19724;51.114;13.906;2023-04-03T06:22:47;1.00;99.90
33368;DHT22;19724;51.114;13.906;2023-04-03T06:25:12;1.00;99.90
33368;DHT22;19724;51.114;13.906;2023-04-03T06:27:38;1.00;99.90
33368;DHT22;19724;51.114;13.906;2023-04-03T06:30:05;1.10;99.90
33368;DHT22;19724;51.114;13.906;2023-04-03T06:32:31;1.00;99.90
33368;DHT22;19724;51.114;13.906;2023-04-03T06:34:57;1.00;99.90
33368;DHT22;19724;51.114;13.906;2023-04-03T06:37:24;1.10;99.90
33368;DHT22;19724;51.114;13.906;2023-04-03T06:39:54;1.10;99.90
33368;DHT22;19724;51.114;13.906;2023-04-03T06:42:20;1.20;99.90
33368;DHT22;19724;51.114;13.906;2023-04-03T06:44:46;1.20;99.90
33368;DHT22;19724;51.114;13.906;2023-04-03T06:47:13;1.20;99.90
33368;DHT22;19724;51.114;13.906;2023-04-03T06:49:38;1.30;99.90
33368;DHT22;19724;51.114;13.906;2023-04-03T06:52:04;1.30;99.90
33368;DHT22;19724;51.114;13.906;2023-04-03T06:54:31;1.40;99.90
33368;DHT22;19724;51.114;13.906;2023-04-03T06:56:56;1.40;99.90
33368;DHT22;19724;51.114;13.906;2023-04-03T06:59:22;1.40;99.90
33368;DHT22;19724;51.114;13.906;2023-04-03T07:01:48;1.50;99.90
33368;DHT22;19724;51.114;13.906;2023-04-03T07:04:14;1.50;99.90
33368;DHT22;19724;51.114;13.906;2023-04-03T07:06:40;1.50;99.90
33368;DHT22;19724;51.114;13.906;2023-04-03T07:09:05;1.50;99.90
33368;DHT22;19724;51.114;13.906;2023-04-03T07:11:31;1.50;99.90
33368;DHT22;19724;51.114;13.906;2023-04-03T07:13:57;1.50;99.90
33368;DHT22;19724;51.114;13.906;2023-04-03T07:16:22;1.60;99.90
33368;DHT22;19724;51.114;13.906;2023-04-03T07:18:48;1.60;99.90
33368;DHT22;19724;51.114;13.906;2023-04-03T07:21:13;1.60;99.90
33368;DHT22;19724;51.114;13.906;2023-04-03T07:23:39;1.60;99.90
33368;DHT22;19724;51.114;13.906;2023-04-03T07:26:05;1.70;99.90
33368;DHT22;19724;51.114;13.906;2023-04-03T07:28:30;1.70;99.90
33368;DHT22;19724;51.114;13.906;2023-04-03T07:31:07;1.70;99.90
33368;DHT22;19724;51.114;13.906;2023-04-03T07:33:34;1.70;99.90
33368;DHT22;19724;51.114;13.906;2023-04-03T07:36:01;1.70;99.90
33368;DHT22;19724;51.114;13.906;2023-04-03T07:38:27;1.80;99.90
33368;DHT22;19724;51.114;13.906;2023-04-03T07:40:52;1.80;99.90
33368;DHT22;19724;51.114;13.906;2023-04-03T07:43:20;1.90;99.90
33368;DHT22;19724;51.114;13.906;2023-04-03T07:45:46;1.90;99.90
33368;DHT22;19724;51.114;13.906;2023-04-03T07:48:15;1.90;99.90
33368;DHT22;19724;51.114;13.906;2023-04-03T07:50:41;2.00;99.90
33368;DHT22;19724;51.114;13.906;2023-04-03T07:53:06;2.00;99.90
33368;DHT22;19724;51.114;13.906;2023-04-03T07:55:33;2.00;99.90
33368;DHT22;19724;51.114;13.906;2023-04-03T07:57:58;2.10;99.90
33368;DHT22;19724;51.114;13.906;2023-04-03T08:00:24;2.00;99.90
33368;DHT22;19724;51.114;13.906;2023-04-03T08:02:50;2.10;99.90
33368;DHT22;19724;51.114;13.906;2023-04-03T08:05:21;2.20;99.90
33368;DHT22;19724;51.114;13.906;2023-04-03T08:07:47;2.30;99.90
33368;DHT22;19724;51.114;13.906;2023-04-03T08:10:13;2.20;99.90
33368;DHT22;19724;51.114;13.906;2023-04-03T08:12:40;2.30;99.90
33368;DHT22;19724;51.114;13.906;2023-04-03T08:15:07;2.30;99.90
33368;DHT22;19724;51.114;13.906;2023-04-03T08:17:33;2.40;99.90
33368;DHT22;19724;51.114;13.906;2023-04-03T08:19:59;2.50;99.90
33368;DHT22;19724;51.114;13.906;2023-04-03T08:22:24;2.50;99.90
33368;DHT22;19724;51.114;13.906;2023-04-03T08:24:49;2.50;99.90
33368;DHT22;19724;51.114;13.906;2023-04-03T08:27:15;2.50;99.90
33368;DHT22;19724;51.114;13.906;2023-04-03T08:29:41;2.50;99.90
33368;DHT22;19724;51.114;13.906;2023-04-03T08:32:07;2.60;99.90
33368;DHT22;19724;51.114;13.906;2023-04-03T08:34:32;2.70;99.90
33368;DHT22;19724;51.114;13.906;2023-04-03T08:37:02;2.70;99.90
33368;DHT22;19724;51.114;13.906;2023-04-03T08:39:27;2.80;99.90
33368;DHT22;19724;51.114;13.906;2023-04-03T08:41:55;2.90;99.90
33368;DHT22;19724;51.114;13.906;2023-04-03T08:44:38;3.00;99.90
33368;DHT22;19724;51.114;13.906;2023-04-03T08:50:23;3.10;99.90
33368;DHT22;19724;51.114;13.906;2023-04-03T08:52:58;3.20;99.90
33368;DHT22;19724;51.114;13.906;2023-04-03T08:55:43;3.20;99.90
33368;DHT22;19724;51.114;13.906;2023-04-03T09:00:59;3.30;99.90
33368;DHT22;19724;51.114;13.906;2023-04-03T09:03:32;3.30;99.90
33368;DHT22;19724;51.114;13.906;2023-04-03T09:06:11;3.30;99.90
33368;DHT22;19724;51.114;13.906;2023-04-03T09:11:26;3.60;99.90
33368;DHT22;19724;51.114;13.906;2023-04-03T09:14:26;3.60;99.90
33368;DHT22;19724;51.114;13.906;2023-04-03T09:17:15;3.70;99.90
33368;DHT22;19724;51.114;13.906;2023-04-03T09:19:58;3.90;99.90
33368;DHT22;19724;51.114;13.906;2023-04-03T09:22:33;4.10;99.90
33368;DHT22;19724;51.114;13.906;2023-04-03T09:25:04;4.30;99.90
33368;DHT22;19724;51.114;13.906;2023-04-03T09:27:31;4.40;99.90
33368;DHT22;19724;51.114;13.906;2023-04-03T09:29:57;4.50;99.90
33368;DHT22;19724;51.114;13.906;2023-04-03T09:32:34;4.60;99.90
33368;DHT22;19724;51.114;13.906;2023-04-03T09:37:51;4.70;99.90
33368;DHT22;19724;51.114;13.906;2023-04-03T09:40:34;4.70;99.90
33368;DHT22;19724;51.114;13.906;2023-04-03T09:43:28;4.80;99.90
33368;DHT22;19724;51.114;13.906;2023-04-03T09:45:55;4.80;99.90
33368;DHT22;19724;51.114;13.906;2023-04-03T09:48:25;4.90;99.90
33368;DHT22;19724;51.114;13.906;2023-04-03T09:53:43;5.80;99.90
33368;DHT22;19724;51.114;13.906;2023-04-03T09:56:19;5.90;99.90
33368;DHT22;19724;51.114;13.906;2023-04-03T09:58:49;6.00;99.90
33368;DHT22;19724;51.114;13.906;2023-04-03T10:04:09;5.80;99.90
33368;DHT22;19724;51.114;13.906;2023-04-03T10:06:44;5.90;99.90
33368;DHT22;19724;51.114;13.906;2023-04-03T10:09:27;5.90;99.90
33368;DHT22;19724;51.114;13.906;2023-04-03T10:12:09;5.80;99.90
33368;DHT22;19724;51.114;13.906;2023-04-03T10:17:14;5.80;99.90
33368;DHT22;19724;51.114;13.906;2023-04-03T10:20:03;6.00;99.90
33368;DHT22;19724;51.114;13.906;2023-04-03T10:22:56;6.10;99.90
33368;DHT22;19724;51.114;13.906;2023-04-03T10:25:50;6.20;99.90
33368;DHT22;19724;51.114;13.906;2023-04-03T10:31:17;6.80;99.90
33368;DHT22;19724;51.114;13.906;2023-04-03T10:33:55;7.00;99.90
33368;DHT22;19724;51.114;13.906;2023-04-03T10:36:38;7.20;99.90
33368;DHT22;19724;51.114;13.906;2023-04-03T10:50:12;7.60;99.90
33368;DHT22;19724;51.114;13.906;2023-04-03T10:52:52;7.40;99.90
33368;DHT22;19724;51.114;13.906;2023-04-03T10:55:44;7.30;99.90
33368;DHT22;19724;51.114;13.906;2023-04-03T10:58:20;7.40;99.90
33368;DHT22;19724;51.114;13.906;2023-04-03T11:00:49;7.40;99.90
33368;DHT22;19724;51.114;13.906;2023-04-03T11:03:27;7.40;99.90
33368;DHT22;19724;51.114;13.906;2023-04-03T11:05:55;7.30;99.90
33368;DHT22;19724;51.114;13.906;2023-04-03T11:09:10;7.20;99.90
33368;DHT22;19724;51.114;13.906;2023-04-03T11:11:22;7.30;99.90
33368;DHT22;19724;51.114;13.906;2023-04-03T11:16:45;7.70;99.90
33368;DHT22;19724;51.114;13.906;2023-04-03T11:19:20;8.00;99.90
33368;DHT22;19724;51.114;13.906;2023-04-03T11:24:56;7.90;99.90
33368;DHT22;19724;51.114;13.906;2023-04-03T11:27:24;7.80;99.90
33368;DHT22;19724;51.114;13.906;2023-04-03T11:29:53;7.80;99.90
33368;DHT22;19724;51.114;13.906;2023-04-03T11:32:41;8.10;99.90
33368;DHT22;19724;51.114;13.906;2023-04-03T11:35:14;8.40;99.90
33368;DHT22;19724;51.114;13.906;2023-04-03T11:37:47;8.70;99.90
33368;DHT22;19724;51.114;13.906;2023-04-03T11:42:47;8.50;99.90
33368;DHT22;19724;51.114;13.906;2023-04-03T11:47:57;8.20;99.90
33368;DHT22;19724;51.114;13.906;2023-04-03T12:13:41;7.60;99.90
33368;DHT22;19724;51.114;13.906;2023-04-03T12:16:43;7.60;99.90
33368;DHT22;19724;51.114;13.906;2023-04-03T12:24:30;7.20;99.90
33368;DHT22;19724;51.114;13.906;2023-04-03T12:29:34;7.20;99.90
33368;DHT22;19724;51.114;13.906;2023-04-03T12:35:30;7.10;99.90
33368;DHT22;19724;51.114;13.906;2023-04-03T12:42:05;7.00;99.90
33368;DHT22;19724;51.114;13.906;2023-04-03T12:46:50;7.20;99.90
33368;DHT22;19724;51.114;13.906;2023-04-03T12:49:35;7.20;99.90
33368;DHT22;19724;51.114;13.906;2023-04-03T12:52:06;7.30;99.90
33368;DHT22;19724;51.114;13.906;2023-04-03T12:54:40;7.20;99.90
33368;DHT22;19724;51.114;13.906;2023-04-03T12:59:41;7.30;99.90
33368;DHT22;19724;51.114;13.906;2023-04-03T13:04:46;7.30;99.90
33368;DHT22;19724;51.114;13.906;2023-04-03T13:07:32;7.20;99.90
33368;DHT22;19724;51.114;13.906;2023-04-03T13:10:19;7.20;99.90
33368;DHT22;19724;51.114;13.906;2023-04-03T13:12:58;7.10;99.90
33368;DHT22;19724;51.114;13.906;2023-04-03T13:15:42;7.00;99.90
33368;DHT22;19724;51.114;13.906;2023-04-03T13:18:31;6.90;99.90
33368;DHT22;19724;51.114;13.906;2023-04-03T13:21:05;6.90;99.90
33368;DHT22;19724;51.114;13.906;2023-04-03T13:23:32;6.90;99.90
33368;DHT22;19724;51.114;13.906;2023-04-03T13:26:00;6.80;99.90
33368;DHT22;19724;51.114;13.906;2023-04-03T13:28:29;6.80;99.90
33368;DHT22;19724;51.114;13.906;2023-04-03T13:31:17;6.80;99.90
33368;DHT22;19724;51.114;13.906;2023-04-03T13:36:23;6.90;99.90
33368;DHT22;19724;51.114;13.906;2023-04-03T13:41:52;7.30;99.90
33368;DHT22;19724;51.114;13.906;2023-04-03T13:44:28;7.60;99.90
33368;DHT22;19724;51.114;13.906;2023-04-03T13:47:00;7.40;99.90
33368;DHT22;19724;51.114;13.906;2023-04-03T13:49:29;7.30;99.90
33368;DHT22;19724;51.114;13.906;2023-04-03T13:51:54;7.10;99.90
33368;DHT22;19724;51.114;13.906;2023-04-03T13:54:23;7.20;99.90
33368;DHT22;19724;51.114;13.906;2023-04-03T13:56:55;7.20;99.90
33368;DHT22;19724;51.114;13.906;2023-04-03T13:59:25;7.10;99.90
33368;DHT22;19724;51.114;13.906;2023-04-03T14:01:53;7.30;99.90
33368;DHT22;19724;51.114;13.906;2023-04-03T14:04:25;7.30;99.90
33368;DHT22;19724;51.114;13.906;2023-04-03T14:06:51;7.30;99.90
33368;DHT22;19724;51.114;13.906;2023-04-03T14:09:19;7.20;99.90
33368;DHT22;19724;51.114;13.906;2023-04-03T14:11:47;7.30;99.90
33368;DHT22;19724;51.114;13.906;2023-04-03T14:14:34;7.40;99.90
33368;DHT22;19724;51.114;13.906;2023-04-03T14:17:03;7.80;99.90
33368;DHT22;19724;51.114;13.906;2023-04-03T14:19:32;8.00;99.90
33368;DHT22;19724;51.114;13.906;2023-04-03T14:21:59;8.00;99.90
33368;DHT22;19724;51.114;13.906;2023-04-03T14:24:26;7.70;99.90
33368;DHT22;19724;51.114;13.906;2023-04-03T14:26:54;7.70;99.90
33368;DHT22;19724;51.114;13.906;2023-04-03T14:29:20;7.60;99.90
33368;DHT22;19724;51.114;13.906;2023-04-03T14:31:47;7.50;99.90
33368;DHT22;19724;51.114;13.906;2023-04-03T14:34:14;7.50;99.90
33368;DHT22;19724;51.114;13.906;2023-04-03T14:36:41;7.40;99.90
33368;DHT22;19724;51.114;13.906;2023-04-03T14:39:11;7.30;99.90
33368;DHT22;19724;51.114;13.906;2023-04-03T14:41:42;7.20;99.90
33368;DHT22;19724;51.114;13.906;2023-04-03T14:44:08;7.10;99.90
33368;DHT22;19724;51.114;13.906;2023-04-03T14:46:36;7.00;99.90
33368;DHT22;19724;51.114;13.906;2023-04-03T14:49:03;7.00;99.90
33368;DHT22;19724;51.114;13.906;2023-04-03T14:51:33;7.40;99.90
33368;DHT22;19724;51.114;13.906;2023-04-03T14:53:58;7.80;99.90
33368;DHT22;19724;51.114;13.906;2023-04-03T14:56:28;8.40;99.90
33368;DHT22;19724;51.114;13.906;2023-04-03T14:58:57;8.80;99.90
33368;DHT22;19724;51.114;13.906;2023-04-03T15:01:23;8.90;99.90
33368;DHT22;19724;51.114;13.906;2023-04-03T15:03:49;8.80;99.90
33368;DHT22;19724;51.114;13.906;2023-04-03T15:06:15;8.60;99.90
33368;DHT22;19724;51.114;13.906;2023-04-03T15:08:41;8.30;99.90
33368;DHT22;19724;51.114;13.906;2023-04-03T15:11:08;8.10;99.90
33368;DHT22;19724;51.114;13.906;2023-04-03T15:13:35;7.90;99.90
33368;DHT22;19724;51.114;13.906;2023-04-03T15:16:00;7.70;99.90
33368;DHT22;19724;51.114;13.906;2023-04-03T15:18:27;7.50;99.90
33368;DHT22;19724;51.114;13.906;2023-04-03T15:20:56;7.40;99.90
33368;DHT22;19724;51.114;13.906;2023-04-03T15:23:22;7.30;99.90
33368;DHT22;19724;51.114;13.906;2023-04-03T15:25:53;7.20;99.90
33368;DHT22;19724;51.114;13.906;2023-04-03T15:30:50;7.10;99.90
33368;DHT22;19724;51.114;13.906;2023-04-03T15:33:16;7.00;99.90
33368;DHT22;19724;51.114;13.906;2023-04-03T15:35:42;7.00;99.90
33368;DHT22;19724;51.114;13.906;2023-04-03T15:38:08;6.90;99.90
33368;DHT22;19724;51.114;13.906;2023-04-03T15:40:34;6.90;99.90
33368;DHT22;19724;51.114;13.906;2023-04-03T15:43:00;6.80;99.90
33368;DHT22;19724;51.114;13.906;2023-04-03T15:45:28;6.70;99.90
33368;DHT22;19724;51.114;13.906;2023-04-03T15:47:54;6.50;99.90
33368;DHT22;19724;51.114;13.906;2023-04-03T15:50:20;6.40;99.90
33368;DHT22;19724;51.114;13.906;2023-04-03T15:52:48;6.40;99.90
33368;DHT22;19724;51.114;13.906;2023-04-03T15:55:13;6.30;99.90
33368;DHT22;19724;51.114;13.906;2023-04-03T15:57:39;6.20;99.90
33368;DHT22;19724;51.114;13.906;2023-04-03T16:00:05;6.20;99.90
33368;DHT22;19724;51.114;13.906;2023-04-03T16:02:31;6.30;99.90
33368;DHT22;19724;51.114;13.906;2023-04-03T16:04:57;6.30;99.90
33368;DHT22;19724;51.114;13.906;2023-04-03T16:07:22;6.30;99.90
33368;DHT22;19724;51.114;13.906;2023-04-03T16:09:48;6.50;99.90
33368;DHT22;19724;51.114;13.906;2023-04-03T16:12:13;6.70;99.90
33368;DHT22;19724;51.114;13.906;2023-04-03T16:14:39;6.90;99.90
33368;DHT22;19724;51.114;13.906;2023-04-03T16:17:04;7.10;99.90
33368;DHT22;19724;51.114;13.906;2023-04-03T16:19:30;7.40;99.90
33368;DHT22;19724;51.114;13.906;2023-04-03T16:21:55;7.60;99.90
33368;DHT22;19724;51.114;13.906;2023-04-03T16:24:21;7.50;99.90
33368;DHT22;19724;51.114;13.906;2023-04-03T16:26:47;7.30;99.90
33368;DHT22;19724;51.114;13.906;2023-04-03T16:29:12;7.30;99.90
33368;DHT22;19724;51.114;13.906;2023-04-03T16:31:38;7.30;99.90
33368;DHT22;19724;51.114;13.906;2023-04-03T16:34:04;7.20;99.90
33368;DHT22;19724;51.114;13.906;2023-04-03T16:36:29;7.20;99.90
33368;DHT22;19724;51.114;13.906;2023-04-03T16:38:54;7.10;99.90
33368;DHT22;19724;51.114;13.906;2023-04-03T16:41:20;6.90;99.90
33368;DHT22;19724;51.114;13.906;2023-04-03T16:43:45;6.80;99.90
33368;DHT22;19724;51.114;13.906;2023-04-03T16:46:11;6.60;99.90
33368;DHT22;19724;51.114;13.906;2023-04-03T16:48:36;6.50;99.90
33368;DHT22;19724;51.114;13.906;2023-04-03T16:51:02;6.20;99.90
33368;DHT22;19724;51.114;13.906;2023-04-03T16:53:28;6.10;99.90
33368;DHT22;19724;51.114;13.906;2023-04-03T16:55:54;6.00;99.90
33368;DHT22;19724;51.114;13.906;2023-04-03T16:58:20;5.90;99.90
33368;DHT22;19724;51.114;13.906;2023-04-03T17:00:45;5.80;99.90
33368;DHT22;19724;51.114;13.906;2023-04-03T17:03:12;5.70;99.90
33368;DHT22;19724;51.114;13.906;2023-04-03T17:05:38;5.60;99.90
33368;DHT22;19724;51.114;13.906;2023-04-03T17:08:03;5.50;99.90
33368;DHT22;19724;51.114;13.906;2023-04-03T17:10:29;5.40;99.90
33368;DHT22;19724;51.114;13.906;2023-04-03T17:12:55;5.30;99.90
33368;DHT22;19724;51.114;13.906;2023-04-03T17:15:21;5.30;99.90
33368;DHT22;19724;51.114;13.906;2023-04-03T17:17:48;5.20;99.90
33368;DHT22;19724;51.114;13.906;2023-04-03T17:20:14;5.10;99.90
33368;DHT22;19724;51.114;13.906;2023-04-03T17:22:40;5.00;99.90
33368;DHT22;19724;51.114;13.906;2023-04-03T17:25:05;4.90;99.90
33368;DHT22;19724;51.114;13.906;2023-04-03T17:27:31;4.80;99.90